createdAt,value
2022-08-17T00:00:34.420Z,1.45
2022-08-17T00:03:10.540Z,1.67
2022-08-17T00:05:42.389Z,1.40
2022-08-17T00:08:11.304Z,1.30
2022-08-17T00:10:39.923Z,1.45
2022-08-17T00:13:09.734Z,1.40
2022-08-17T00:15:39.898Z,1.30
2022-08-17T00:19:02.437Z,1.75
2022-08-17T00:20:57.376Z,1.30
2022-08-17T00:23:26.058Z,1.20
2022-08-17T00:25:54.972Z,1.40
2022-08-17T00:28:23.328Z,1.55
2022-08-17T00:30:54.038Z,1.05
2022-08-17T00:33:25.408Z,1.27
2022-08-17T00:35:54.115Z,1.10
2022-08-17T00:38:23.273Z,1.05
2022-08-17T00:40:55.699Z,1.15
2022-08-17T00:43:30.541Z,1.30
2022-08-17T00:46:01.661Z,1.00
2022-08-17T00:48:30.901Z,1.02
2022-08-17T00:51:08.350Z,1.08
2022-08-17T00:53:41.879Z,0.80
2022-08-17T00:56:13.245Z,0.90
2022-08-17T00:58:42.131Z,1.15
2022-08-17T01:01:21.336Z,1.23
2022-08-17T01:03:51.783Z,1.10
2022-08-17T01:06:20.490Z,0.93
2022-08-17T01:08:57.794Z,1.00
2022-08-17T01:11:26.358Z,1.00
2022-08-17T01:13:54.825Z,1.13
2022-08-17T01:16:27.398Z,1.40
2022-08-17T01:18:58.070Z,1.50
2022-08-17T01:21:33.017Z,1.40
2022-08-17T01:24:02.860Z,1.80
2022-08-17T01:26:34.203Z,2.00
2022-08-17T01:29:04.087Z,1.60
2022-08-17T01:31:41.516Z,1.20
2022-08-17T01:34:11.544Z,1.20
2022-08-17T01:36:42.051Z,1.20
2022-08-17T01:39:19.461Z,1.38
2022-08-17T01:41:49.363Z,1.60
2022-08-17T01:44:17.922Z,1.35
2022-08-17T01:46:45.837Z,1.20
2022-08-17T01:49:13.823Z,1.38
2022-08-17T01:51:42.808Z,1.52
2022-08-17T01:54:16.112Z,1.50
2022-08-17T01:56:47.520Z,1.50
2022-08-17T01:59:16.661Z,1.20
2022-08-17T02:01:45.293Z,1.58
2022-08-17T02:04:13.610Z,1.60
2022-08-17T02:06:47.072Z,1.67
2022-08-17T02:09:26.289Z,1.30
2022-08-17T02:11:59.983Z,1.88
2022-08-17T02:14:57.084Z,1.90
2022-08-17T02:17:25.111Z,1.30
2022-08-17T02:19:53.012Z,1.40
2022-08-17T02:22:26.075Z,1.92
2022-08-17T02:25:01.252Z,1.63
2022-08-17T02:27:30.675Z,2.03
2022-08-17T02:29:58.740Z,1.98
2022-08-17T02:32:28.747Z,1.75
2022-08-17T02:35:01.076Z,2.30
2022-08-17T02:37:30.945Z,1.58
2022-08-17T02:40:00.756Z,1.48
2022-08-17T02:42:31.514Z,1.60
2022-08-17T02:45:01.687Z,1.73
2022-08-17T02:47:30.404Z,1.58
2022-08-17T02:49:58.658Z,1.67
2022-08-17T02:52:42.864Z,1.50
2022-08-17T02:55:23.405Z,1.75
2022-08-17T02:57:54.623Z,1.77
2022-08-17T03:00:25.684Z,1.92
2022-08-17T03:02:58.299Z,1.48
2022-08-17T03:05:30.667Z,1.58
2022-08-17T03:07:58.987Z,1.85
2022-08-17T03:10:29.681Z,1.75
2022-08-17T03:12:57.882Z,1.48
2022-08-17T03:15:28.619Z,1.35
2022-08-17T03:18:03.891Z,1.60
2022-08-17T03:20:33.754Z,1.83
2022-08-17T03:23:03.119Z,1.33
2022-08-17T03:25:36.194Z,1.23
2022-08-17T03:28:05.692Z,1.10
2022-08-17T03:30:37.587Z,1.55
2022-08-17T03:33:09.906Z,1.55
2022-08-17T03:35:44.130Z,1.27
2022-08-17T03:38:15.199Z,1.45
2022-08-17T03:40:57.602Z,1.00
2022-08-17T03:43:30.267Z,1.15
2022-08-17T03:46:33.842Z,1.25
2022-08-17T03:49:25.396Z,1.30
2022-08-17T03:52:17.770Z,1.30
2022-08-17T03:55:04.054Z,1.33
2022-08-17T03:57:33.766Z,1.20
2022-08-17T04:00:01.993Z,1.42
2022-08-17T04:02:59.883Z,1.25
2022-08-17T04:05:30.627Z,1.40
2022-08-17T04:08:06.956Z,1.30
2022-08-17T04:10:41.398Z,1.23
2022-08-17T04:13:14.959Z,1.40
2022-08-17T04:16:00.505Z,1.60
2022-08-17T04:18:29.148Z,2.35
2022-08-17T04:20:57.366Z,1.73
2022-08-17T04:23:39.751Z,1.52
2022-08-17T04:26:07.688Z,1.65
2022-08-17T04:28:37.284Z,1.33
2022-08-17T04:31:05.834Z,1.13
2022-08-17T04:33:34.868Z,1.52
2022-08-17T04:36:05.379Z,1.33
2022-08-17T04:38:35.742Z,1.75
2022-08-17T04:41:19.711Z,2.22
2022-08-17T04:43:54.891Z,2.10
2022-08-17T04:46:26.183Z,1.65
2022-08-17T04:49:00.699Z,2.00
2022-08-17T04:51:32.113Z,3.35
2022-08-17T04:54:02.753Z,2.45
2022-08-17T04:56:33.782Z,2.13
2022-08-17T04:59:14.043Z,2.78
2022-08-17T05:01:43.947Z,2.20
2022-08-17T05:04:33.244Z,3.45
2022-08-17T05:07:03.271Z,2.88
2022-08-17T05:09:33.590Z,3.00
2022-08-17T05:12:02.267Z,3.03
2022-08-17T05:14:39.844Z,3.45
2022-08-17T05:17:11.015Z,3.22
2022-08-17T05:19:39.374Z,2.78
2022-08-17T05:22:07.540Z,2.13
2022-08-17T05:24:43.722Z,1.98
2022-08-17T05:27:22.780Z,2.83
2022-08-17T05:29:54.382Z,2.85
2022-08-17T05:32:39.321Z,2.70
2022-08-17T05:35:08.942Z,2.08
2022-08-17T05:37:36.819Z,2.17
2022-08-17T05:40:11.660Z,2.08
2022-08-17T05:42:40.127Z,1.80
2022-08-17T05:45:11.070Z,2.05
2022-08-17T05:47:40.654Z,2.13
2022-08-17T05:50:27.173Z,1.90
2022-08-17T05:53:09.156Z,1.30
2022-08-17T05:55:50.267Z,2.70
2022-08-17T05:58:26.521Z,1.95
2022-08-17T06:01:15.590Z,1.80
2022-08-17T06:04:16.575Z,2.17
2022-08-17T06:06:55.233Z,1.70
2022-08-17T06:09:36.734Z,1.40
2022-08-17T06:12:37.488Z,1.20
2022-08-17T06:15:26.686Z,2.05
2022-08-17T06:18:00.088Z,1.52
2022-08-17T06:20:45.549Z,1.50
2022-08-17T06:23:28.521Z,2.45
2022-08-17T06:26:05.072Z,1.58
2022-08-17T06:28:38.995Z,1.92
2022-08-17T06:33:46.321Z,1.55
2022-08-17T06:39:21.143Z,1.23
2022-08-17T06:42:02.266Z,1.10
2022-08-17T06:44:51.571Z,1.20
2022-08-17T06:47:28.831Z,1.45
2022-08-17T06:50:20.331Z,1.05
2022-08-17T06:53:00.671Z,1.55
2022-08-17T06:55:47.812Z,1.98
2022-08-17T06:58:21.165Z,1.73
2022-08-17T07:00:58.119Z,1.98
2022-08-17T07:03:33.331Z,1.67
2022-08-17T07:06:15.090Z,1.70
2022-08-17T07:09:05.513Z,1.40
2022-08-17T07:11:50.441Z,1.45
2022-08-17T07:14:32.379Z,1.30
2022-08-17T07:17:04.418Z,1.58
2022-08-17T07:19:45.647Z,1.15
2022-08-17T07:22:55.231Z,1.42
2022-08-17T07:25:36.769Z,1.60
2022-08-17T07:28:07.836Z,0.80
2022-08-17T07:30:45.794Z,1.15
2022-08-17T07:33:20.191Z,1.10
2022-08-17T07:35:52.083Z,1.10
2022-08-17T07:38:24.226Z,1.20
2022-08-17T07:41:04.476Z,1.42
2022-08-17T07:43:35.691Z,1.20
2022-08-17T07:46:34.144Z,1.08
2022-08-17T07:49:20.897Z,0.90
2022-08-17T07:51:59.990Z,0.85
2022-08-17T07:54:44.043Z,1.17
2022-08-17T07:57:34.239Z,1.17
2022-08-17T08:00:31.658Z,1.05
2022-08-17T08:03:26.194Z,1.25
2022-08-17T08:06:00.262Z,1.05
2022-08-17T08:08:44.507Z,0.90
2022-08-17T08:11:29.227Z,1.02
2022-08-17T08:14:28.533Z,1.00
2022-08-17T08:16:59.946Z,0.90
2022-08-17T08:19:32.380Z,0.88
2022-08-17T08:22:10.662Z,1.35
2022-08-17T08:25:05.345Z,0.98
2022-08-17T08:30:38.078Z,0.88
2022-08-17T08:33:25.913Z,1.10
2022-08-17T08:36:05.124Z,1.05
2022-08-17T08:38:50.669Z,1.45
2022-08-17T08:41:33.270Z,1.83
2022-08-17T08:44:15.481Z,0.93
2022-08-17T08:46:57.694Z,1.08
2022-08-17T08:50:04.340Z,0.82
2022-08-17T08:53:01.246Z,1.30
2022-08-17T08:55:55.235Z,1.25
2022-08-17T09:01:30.087Z,1.30
2022-08-17T09:04:29.772Z,1.20
2022-08-17T09:07:09.919Z,1.40
2022-08-17T09:10:08.710Z,1.42
2022-08-17T09:12:52.068Z,1.40
2022-08-17T09:15:27.559Z,0.90
2022-08-17T09:18:59.260Z,1.38
2022-08-17T09:21:00.853Z,1.13
2022-08-17T09:23:35.306Z,0.90
2022-08-17T09:26:12.888Z,1.20
2022-08-17T09:28:59.272Z,1.30
2022-08-17T09:31:50.115Z,1.15
2022-08-17T09:34:33.446Z,1.17
2022-08-17T09:37:15.160Z,0.90
2022-08-17T09:39:48.993Z,0.80
2022-08-17T09:42:30.404Z,1.15
2022-08-17T09:45:08.103Z,1.20
2022-08-17T09:47:46.707Z,1.30
2022-08-17T09:51:03.709Z,0.90
2022-08-17T09:53:15.373Z,0.90
2022-08-17T09:56:18.741Z,1.13
2022-08-17T09:59:09.937Z,0.85
2022-08-17T10:01:45.345Z,0.90
2022-08-17T10:04:37.531Z,1.27
2022-08-17T10:07:17.399Z,1.30
2022-08-17T10:10:00.586Z,1.20
2022-08-17T10:12:49.843Z,0.85
2022-08-17T10:15:29.145Z,0.90
2022-08-17T10:18:39.980Z,0.98
2022-08-17T10:21:31.824Z,0.90
2022-08-17T10:24:25.939Z,1.40
2022-08-17T10:29:47.345Z,1.13
2022-08-17T10:32:26.252Z,1.42
2022-08-17T10:35:09.431Z,1.20
2022-08-17T10:37:50.491Z,1.30
2022-08-17T10:40:39.114Z,1.20
2022-08-17T10:43:29.188Z,1.17
2022-08-17T10:46:31.592Z,1.00
2022-08-17T10:49:26.174Z,0.80
2022-08-17T10:51:59.945Z,0.90
2022-08-17T10:54:49.067Z,0.70
2022-08-17T10:57:40.466Z,1.50
2022-08-17T11:00:14.948Z,0.90
2022-08-17T11:02:53.694Z,0.70
2022-08-17T11:05:54.111Z,0.70
2022-08-17T11:08:52.158Z,0.80
2022-08-17T11:11:39.937Z,0.55
2022-08-17T11:14:41.756Z,1.05
2022-08-17T11:17:49.785Z,1.00
2022-08-17T11:21:23.624Z,1.08
2022-08-17T11:24:32.962Z,0.50
2022-08-17T11:27:12.133Z,0.65
2022-08-17T11:30:01.545Z,0.70
2022-08-17T11:32:38.152Z,0.70
2022-08-17T11:35:47.276Z,0.75
2022-08-17T11:38:25.297Z,0.60
2022-08-17T11:41:20.132Z,0.77
2022-08-17T11:44:15.340Z,1.35
2022-08-17T11:47:15.839Z,1.00
2022-08-17T11:50:40.488Z,0.90
2022-08-17T11:53:29.241Z,0.70
2022-08-17T11:56:06.048Z,1.10
2022-08-17T11:58:38.365Z,1.27
2022-08-17T12:01:13.677Z,0.80
2022-08-17T12:03:54.342Z,0.82
2022-08-17T12:06:56.959Z,0.60
2022-08-17T12:09:31.276Z,1.10
2022-08-17T12:12:13.900Z,0.70
2022-08-17T12:20:29.274Z,0.80
2022-08-17T12:23:10.343Z,0.60
2022-08-17T12:25:44.074Z,0.40
2022-08-17T12:28:23.850Z,0.70
2022-08-17T12:30:53.656Z,0.57
2022-08-17T12:33:28.900Z,0.60
2022-08-17T12:36:27.636Z,1.08
2022-08-17T12:39:13.048Z,0.63
2022-08-17T12:41:44.996Z,0.65
2022-08-17T12:44:24.134Z,0.57
2022-08-17T12:47:00.762Z,0.50
2022-08-17T12:49:35.468Z,0.55
2022-08-17T12:52:19.857Z,0.70
2022-08-17T12:55:03.037Z,0.60
2022-08-17T12:57:43.638Z,0.50
2022-08-17T13:00:41.321Z,0.40
2022-08-17T13:03:19.349Z,0.55
2022-08-17T13:06:06.890Z,1.08
2022-08-17T13:08:40.278Z,0.90
2022-08-17T13:11:10.473Z,0.90
2022-08-17T13:13:41.227Z,0.93
2022-08-17T13:16:17.872Z,0.65
2022-08-17T13:18:51.402Z,0.82
2022-08-17T13:21:30.564Z,0.93
2022-08-17T13:24:05.917Z,1.00
2022-08-17T13:26:38.003Z,0.95
2022-08-17T13:29:08.396Z,0.82
2022-08-17T13:31:52.206Z,1.00
2022-08-17T13:35:12.030Z,0.40
2022-08-17T13:37:33.535Z,0.40
2022-08-17T13:40:21.652Z,0.73
2022-08-17T13:42:59.793Z,0.57
2022-08-17T13:46:13.556Z,0.77
2022-08-17T13:48:44.930Z,0.65
2022-08-17T13:51:35.822Z,0.60
2022-08-17T13:54:24.569Z,0.40
2022-08-17T13:57:07.548Z,0.40
2022-08-17T13:59:54.867Z,0.52
2022-08-17T14:02:29.139Z,0.50
2022-08-17T14:07:33.658Z,0.40
2022-08-17T14:10:17.295Z,0.50
2022-08-17T14:15:17.438Z,0.40
2022-08-17T14:17:45.673Z,0.40
2022-08-17T14:20:14.572Z,0.52
2022-08-17T14:22:46.210Z,0.60
2022-08-17T14:25:17.569Z,0.38
2022-08-17T14:27:52.591Z,0.38
2022-08-17T14:30:25.107Z,0.65
2022-08-17T14:32:53.997Z,0.75
2022-08-17T14:35:24.444Z,0.50
2022-08-17T14:37:53.347Z,0.45
2022-08-17T14:40:24.678Z,0.45
2022-08-17T14:42:56.013Z,0.20
2022-08-17T14:45:30.155Z,0.47
2022-08-17T14:48:02.716Z,1.00
2022-08-17T14:50:30.955Z,1.10
2022-08-17T14:53:01.332Z,0.70
2022-08-17T14:55:29.771Z,0.75
2022-08-17T14:57:59.345Z,0.50
2022-08-17T15:00:28.501Z,0.60
2022-08-17T15:02:58.687Z,0.65
2022-08-17T15:05:30.557Z,0.60
2022-08-17T15:07:58.864Z,1.05
2022-08-17T15:10:27.802Z,0.93
2022-08-17T15:12:56.135Z,1.17
2022-08-17T15:15:25.505Z,1.30
2022-08-17T15:17:55.866Z,1.17
2022-08-17T15:22:58.761Z,0.77
2022-08-17T15:25:28.727Z,0.82
2022-08-17T15:27:56.900Z,1.00
2022-08-17T15:30:27.147Z,0.80
2022-08-17T15:32:55.818Z,1.10
2022-08-17T15:35:29.383Z,0.95
2022-08-17T15:38:06.256Z,0.80
2022-08-17T15:40:36.963Z,1.40
2022-08-17T15:43:11.821Z,1.15
2022-08-17T15:45:41.514Z,0.85
2022-08-17T15:48:10.036Z,0.50
2022-08-17T15:50:38.058Z,0.57
2022-08-17T15:53:05.982Z,0.90
2022-08-17T15:55:34.400Z,1.30
2022-08-17T15:58:02.501Z,0.95
2022-08-17T16:00:31.147Z,0.95
2022-08-17T16:03:45.260Z,0.82
2022-08-17T16:05:55.112Z,0.80
2022-08-17T16:08:23.095Z,0.50
2022-08-17T16:10:51.148Z,0.60
2022-08-17T16:13:20.370Z,0.70
2022-08-17T16:15:57.100Z,0.90
2022-08-17T16:18:30.994Z,0.50
2022-08-17T16:23:47.657Z,0.52
2022-08-17T16:26:15.994Z,0.80
2022-08-17T16:28:43.878Z,0.57
2022-08-17T16:31:12.258Z,0.80
2022-08-17T16:33:42.362Z,0.70
2022-08-17T16:36:31.147Z,0.60
2022-08-17T16:38:59.379Z,0.80
2022-08-17T16:41:45.514Z,1.00
2022-08-17T16:44:15.796Z,0.90
2022-08-17T16:46:45.424Z,1.00
2022-08-17T16:49:36.009Z,1.60
2022-08-17T16:52:06.050Z,1.60
2022-08-17T16:54:35.392Z,1.50
2022-08-17T16:57:05.008Z,1.27
2022-08-17T16:59:40.749Z,1.17
2022-08-17T17:02:11.296Z,1.02
2022-08-17T17:04:50.492Z,1.50
2022-08-17T17:07:34.758Z,1.20
2022-08-17T17:10:06.668Z,0.82
2022-08-17T17:13:03.013Z,0.73
2022-08-17T17:15:28.228Z,0.68
2022-08-17T17:18:06.134Z,0.93
2022-08-17T17:20:43.781Z,1.20
2022-08-17T17:23:33.204Z,0.88
2022-08-17T17:26:11.697Z,1.20
2022-08-17T17:28:50.788Z,1.02
2022-08-17T17:31:23.745Z,0.80
2022-08-17T17:33:57.375Z,0.60
2022-08-17T17:36:30.971Z,0.90
2022-08-17T17:41:34.455Z,0.70
2022-08-17T17:44:08.054Z,0.70
2022-08-17T17:46:41.323Z,1.00
2022-08-17T17:49:14.107Z,0.73
2022-08-17T17:52:07.745Z,0.73
2022-08-17T17:54:49.752Z,0.70
2022-08-17T17:57:27.234Z,0.50
2022-08-17T18:00:08.061Z,0.70
2022-08-17T18:02:51.751Z,0.60
2022-08-17T18:05:40.560Z,0.75
2022-08-17T18:08:19.983Z,0.68
2022-08-17T18:11:08.783Z,0.65
2022-08-17T18:13:54.160Z,0.82
2022-08-17T18:16:22.952Z,0.73
2022-08-17T18:18:52.769Z,0.80
2022-08-17T18:21:23.608Z,0.63
2022-08-17T18:24:08.342Z,0.80
2022-08-17T18:26:45.066Z,0.70
2022-08-17T18:29:22.504Z,0.45
2022-08-17T18:32:10.627Z,0.70
2022-08-17T18:34:48.019Z,0.70
2022-08-17T18:37:32.900Z,0.68
2022-08-17T18:40:26.142Z,0.70
2022-08-17T18:43:03.618Z,0.80
2022-08-17T18:45:35.623Z,0.70
2022-08-17T18:48:04.218Z,0.52
2022-08-17T18:50:42.402Z,0.88
2022-08-17T18:53:42.012Z,0.70
2022-08-17T18:56:30.672Z,0.80
2022-08-17T18:59:14.244Z,0.80
2022-08-17T19:01:53.486Z,0.60
2022-08-17T19:04:38.070Z,0.60
2022-08-17T19:07:10.705Z,0.70
2022-08-17T19:09:43.609Z,0.75
2022-08-17T19:12:27.657Z,0.80
2022-08-17T19:17:30.236Z,0.70
2022-08-17T19:20:03.677Z,0.80
2022-08-17T19:22:43.792Z,1.00
2022-08-17T19:25:16.224Z,0.70
2022-08-17T19:27:57.231Z,0.60
2022-08-17T19:30:29.128Z,0.40
2022-08-17T19:32:58.370Z,0.80
2022-08-17T19:35:35.464Z,0.68
2022-08-17T19:38:12.891Z,0.60
2022-08-17T19:40:54.030Z,0.68
2022-08-17T19:43:31.862Z,0.63
2022-08-17T19:46:08.635Z,0.75
2022-08-17T19:48:48.303Z,1.30
2022-08-17T19:51:24.801Z,1.08
2022-08-17T19:54:09.506Z,1.20
2022-08-17T19:56:47.470Z,0.73
2022-08-17T19:59:35.956Z,0.77
2022-08-17T20:02:17.899Z,0.80
2022-08-17T20:05:03.972Z,0.80
2022-08-17T20:07:43.512Z,0.80
2022-08-17T20:10:19.580Z,0.70
2022-08-17T20:12:54.375Z,1.20
2022-08-17T20:15:30.613Z,1.00
2022-08-17T20:18:01.449Z,1.10
2022-08-17T20:20:36.074Z,0.93
2022-08-17T20:23:11.594Z,1.20
2022-08-17T20:25:46.878Z,1.20
2022-08-17T20:28:28.139Z,1.10
2022-08-17T20:34:36.809Z,2.35
2022-08-17T20:37:38.345Z,1.65
2022-08-17T20:40:31.737Z,1.23
2022-08-17T20:43:00.673Z,1.70
2022-08-17T20:45:54.898Z,1.30
2022-08-17T20:48:37.961Z,1.40
2022-08-17T20:51:27.206Z,1.42
2022-08-17T20:54:28.567Z,1.42
2022-08-17T20:57:00.388Z,1.20
2022-08-17T21:00:14.425Z,1.35
2022-08-17T21:02:44.689Z,1.13
2022-08-17T21:05:34.467Z,1.30
2022-08-17T21:08:14.311Z,1.38
2022-08-17T21:10:45.609Z,1.30
2022-08-17T21:14:09.090Z,1.70
2022-08-17T21:16:54.765Z,1.70
2022-08-17T21:19:49.008Z,1.90
2022-08-17T21:22:38.701Z,1.38
2022-08-17T21:25:19.928Z,1.42
2022-08-17T21:27:58.595Z,1.58
2022-08-17T21:30:47.680Z,1.33
2022-08-17T21:33:25.418Z,1.20
2022-08-17T21:36:16.229Z,1.45
2022-08-17T21:38:58.435Z,1.17
2022-08-17T21:41:31.034Z,0.70
2022-08-17T21:44:05.257Z,0.70
2022-08-17T21:46:38.526Z,0.95
2022-08-17T21:49:13.579Z,0.80
2022-08-17T21:51:46.720Z,0.80
2022-08-17T21:54:28.913Z,0.80
2022-08-17T21:56:57.105Z,0.80
2022-08-17T21:59:28.993Z,1.85
2022-08-17T22:01:58.645Z,1.10
2022-08-17T22:04:29.487Z,1.25
2022-08-17T22:07:00.183Z,0.93
2022-08-17T22:09:33.430Z,1.10
2022-08-17T22:12:05.721Z,0.90
2022-08-17T22:14:52.486Z,1.13
2022-08-17T22:17:25.366Z,0.90
2022-08-17T22:19:56.337Z,1.00
2022-08-17T22:22:58.010Z,1.17
2022-08-17T22:25:29.514Z,0.90
2022-08-17T22:27:59.937Z,0.90
2022-08-17T22:30:32.362Z,0.82
2022-08-17T22:33:02.007Z,0.80
2022-08-17T22:35:43.516Z,0.80
2022-08-17T22:38:38.476Z,0.80
2022-08-17T22:41:42.231Z,1.05
2022-08-17T22:44:27.362Z,0.70
2022-08-17T22:47:01.805Z,1.27
2022-08-17T22:49:33.478Z,1.15
2022-08-17T22:52:08.881Z,1.10
2022-08-17T22:54:54.542Z,1.27
2022-08-17T22:57:51.697Z,1.40
2022-08-17T23:00:34.175Z,1.25
2022-08-17T23:03:10.360Z,1.10
2022-08-17T23:05:39.530Z,0.98
2022-08-17T23:08:15.586Z,1.13
2022-08-17T23:10:45.328Z,1.17
2022-08-17T23:13:16.057Z,0.90
2022-08-17T23:15:44.559Z,1.13
2022-08-17T23:18:12.791Z,1.10
2022-08-17T23:20:43.554Z,1.30
2022-08-17T23:23:14.100Z,0.98
2022-08-17T23:25:44.522Z,0.98
2022-08-17T23:28:14.217Z,1.00
2022-08-17T23:30:46.610Z,1.40
2022-08-17T23:33:21.265Z,0.85
2022-08-17T23:35:51.507Z,1.10
2022-08-17T23:38:19.640Z,0.80
2022-08-17T23:40:47.688Z,0.82
2022-08-17T23:43:24.825Z,0.70
2022-08-17T23:45:55.420Z,1.08
2022-08-17T23:48:35.268Z,1.20
2022-08-17T23:51:08.507Z,1.30
2022-08-17T23:53:42.363Z,0.80
2022-08-17T23:56:11.820Z,1.48
2022-08-17T23:58:44.771Z,1.35
